Terminal Aerodrome Forecast
Issued by NWS Charleston, WV

Current Version | Previous Version | Text Only | Print | Product List | Glossary Off
Versions: 1 2 3 4 5 6 7 8 9 10 11 12 13 14 15 16 17 18 19 20 21 22 23 24 25 26 27

000
FTUS41 KRLX 252200 AAA
TAFCRW
TAF AMD
KCRW 252209Z 2522/2618 27010G18KT P6SM SCT070
     FM252300 23009KT P6SM SKC
     FM260100 22007KT P6SM SKC
     FM260300 00000KT P6SM SCT060
     FM261500 21011G19KT P6SM BKN050=

USA.gov is the U.S. government's official web portal to all federal, state and local government web resources and services.